Time;durP1;ratioP1;P1;durP2;ratioP2;P2;SDS_P1;SDS_P2;PMS_P1;PMS_P2;Temp;Humidity;BMP_temperature;BMP_pressure;BME280_temperature;BME280_humidity;BME280_pressure;Samples;Min_cycle;Max_cycle;Signal;HPM_P1;HPM_P2
2023/09/23 00:00:11;;;;;;;;;;;;;;;17.64;100.00;95327.03;5114845;28;1182;-58
2023/09/23 00:02:38;;;;;;;;;;;;;;;17.52;100.00;95331.34;5114735;28;960;-57
2023/09/23 00:05:08;;;;;;;;;;;;;;;17.53;100.00;95333.03;5114515;28;1007;-58
2023/09/23 00:07:41;;;;;;;;;;;;;;;17.51;100.00;95325.09;5114762;28;1058;-58
2023/09/23 00:10:08;;;;;;;;;;;;;;;17.64;100.00;95335.16;5114329;28;1990;-58
2023/09/23 00:12:35;;;;;;;;;;;;;;;17.62;100.00;95329.09;5114467;28;1015;-58
2023/09/23 00:15:03;;;;;;;;;;;;;;;17.69;100.00;95334.53;5114484;28;969;-58
2023/09/23 00:17:29;;;;;;;;;;;;;;;17.59;100.00;95336.78;5114480;27;1023;-58
2023/09/23 00:19:56;;;;;;;;;;;;;;;17.54;100.00;95331.97;5114517;28;1063;-58
2023/09/23 00:22:22;;;;;;;;;;;;;;;17.63;100.00;95332.66;5114370;28;1077;-57
2023/09/23 00:24:50;;;;;;;;;;;;;;;17.43;100.00;95337.94;5114468;28;1032;-58
2023/09/23 00:27:17;;;;;;;;;;;;;;;17.49;100.00;95324.47;5114230;28;1031;-58
2023/09/23 00:29:44;;;;;;;;;;;;;;;17.30;100.00;95338.69;5112903;28;1996;-58
2023/09/23 00:32:12;;;;;;;;;;;;;;;17.29;100.00;95339.72;5113920;28;1083;-58
2023/09/23 00:34:39;;;;;;;;;;;;;;;17.35;100.00;95342.47;5114353;28;980;-58
2023/09/23 00:37:07;;;;;;;;;;;;;;;17.10;100.00;95336.69;5114024;28;1043;-58
2023/09/23 00:39:41;;;;;;;;;;;;;;;17.05;100.00;95324.81;5114065;28;964;-57
2023/09/23 00:42:10;;;;;;;;;;;;;;;17.13;100.00;95336.31;5114104;28;1063;-58
2023/09/23 00:44:39;;;;;;;;;;;;;;;17.25;100.00;95325.78;5112947;28;1027;-58
2023/09/23 00:47:07;;;;;;;;;;;;;;;17.32;100.00;95329.38;5113924;28;1047;-57
2023/09/23 00:49:34;;;;;;;;;;;;;;;17.18;100.00;95333.00;5113973;28;1913;-57
2023/09/23 00:52:02;;;;;;;;;;;;;;;17.13;100.00;95332.75;5113503;28;1104;-58
2023/09/23 00:54:31;;;;;;;;;;;;;;;16.91;100.00;95335.50;5114002;28;1132;-58
2023/09/23 00:57:00;;;;;;;;;;;;;;;16.87;100.00;95333.41;5113770;28;1040;-57
2023/09/23 00:59:27;;;;;;;;;;;;;;;16.92;100.00;95333.63;5113852;28;1180;-57
2023/09/23 01:01:56;;;;;;;;;;;;;;;17.08;100.00;95322.56;5113789;28;964;-58
2023/09/23 01:04:22;;;;;;;;;;;;;;;17.22;100.00;95319.94;5113690;28;1038;-58
2023/09/23 01:06:48;;;;;;;;;;;;;;;17.11;100.00;95326.72;5113733;28;1055;-58
2023/09/23 01:09:19;;;;;;;;;;;;;;;16.90;100.00;95323.06;5113680;28;1983;-57
2023/09/23 01:11:45;;;;;;;;;;;;;;;17.07;100.00;95328.16;5113662;28;1059;-58
2023/09/23 01:14:11;;;;;;;;;;;;;;;17.13;100.00;95321.94;5113766;28;1043;-57
2023/09/23 01:16:37;;;;;;;;;;;;;;;17.08;100.00;95316.31;5113830;28;1046;-58
2023/09/23 01:19:05;;;;;;;;;;;;;;;16.78;100.00;95322.72;5113584;28;1107;-57
2023/09/23 01:21:31;;;;;;;;;;;;;;;16.76;100.00;95321.25;5113735;28;988;-58
2023/09/23 01:23:57;;;;;;;;;;;;;;;16.80;100.00;95317.13;5113817;28;1110;-57
2023/09/23 01:26:24;;;;;;;;;;;;;;;16.79;100.00;95321.69;5113359;28;1040;-58
2023/09/23 01:28:50;;;;;;;;;;;;;;;16.94;100.00;95329.72;5113774;28;1067;-58
2023/09/23 01:31:20;;;;;;;;;;;;;;;16.95;100.00;95328.69;5113384;28;1906;-59
2023/09/23 01:33:46;;;;;;;;;;;;;;;17.06;100.00;95321.09;5113468;28;1055;-58
2023/09/23 01:36:12;;;;;;;;;;;;;;;17.04;100.00;95326.69;5113338;28;1027;-58
2023/09/23 01:38:40;;;;;;;;;;;;;;;17.10;100.00;95317.78;5113384;28;1168;-58
2023/09/23 01:41:06;;;;;;;;;;;;;;;16.92;100.00;95321.00;5113380;28;1043;-57
2023/09/23 01:43:32;;;;;;;;;;;;;;;16.81;100.00;95321.50;5113505;28;1051;-58
2023/09/23 01:46:03;;;;;;;;;;;;;;;16.69;100.00;95320.34;5113328;28;1088;-57
2023/09/23 01:48:30;;;;;;;;;;;;;;;16.70;100.00;95322.03;5113440;28;1036;-58
2023/09/23 01:50:59;;;;;;;;;;;;;;;16.81;100.00;95324.19;5113094;28;1902;-58
2023/09/23 01:53:27;;;;;;;;;;;;;;;16.71;100.00;95323.69;5113295;28;976;-57
2023/09/23 01:55:54;;;;;;;;;;;;;;;16.62;100.00;95320.31;5113178;28;1044;-57
2023/09/23 01:58:22;;;;;;;;;;;;;;;16.67;100.00;95319.72;5112992;28;1236;-57
2023/09/23 02:00:49;;;;;;;;;;;;;;;16.53;100.00;95316.06;5113517;28;1074;-57
2023/09/23 02:03:16;;;;;;;;;;;;;;;16.55;100.00;95322.94;5113590;28;992;-58
2023/09/23 02:05:42;;;;;;;;;;;;;;;16.63;100.00;95315.72;5113164;28;1036;-57
2023/09/23 02:08:08;;;;;;;;;;;;;;;16.65;100.00;95321.78;5111978;28;983;-57
2023/09/23 02:10:34;;;;;;;;;;;;;;;16.65;100.00;95317.19;5113148;28;1984;-57
2023/09/23 02:13:00;;;;;;;;;;;;;;;16.67;100.00;95323.22;5113987;28;1052;-57
2023/09/23 02:15:26;;;;;;;;;;;;;;;16.56;100.00;95321.06;5116786;28;1054;-57
2023/09/23 02:17:53;;;;;;;;;;;;;;;16.43;100.00;95318.25;5116753;28;1019;-57
2023/09/23 02:20:19;;;;;;;;;;;;;;;16.33;100.00;95322.13;5116663;27;960;-57
2023/09/23 02:22:46;;;;;;;;;;;;;;;16.33;100.00;95326.66;5116601;28;1059;-57
2023/09/23 02:25:12;;;;;;;;;;;;;;;16.35;100.00;95324.59;5116666;28;1051;-57
2023/09/23 02:27:38;;;;;;;;;;;;;;;16.35;100.00;95322.75;5116492;28;1091;-57
2023/09/23 02:30:09;;;;;;;;;;;;;;;16.44;100.00;95326.16;5116382;28;1906;-57
2023/09/23 02:32:42;;;;;;;;;;;;;;;16.44;100.00;95328.84;5116422;28;1971;-57
2023/09/23 02:35:11;;;;;;;;;;;;;;;16.39;100.00;95328.63;5116661;28;963;-58
2023/09/23 02:37:38;;;;;;;;;;;;;;;16.62;100.00;95339.19;5116258;28;1046;-57
2023/09/23 02:40:06;;;;;;;;;;;;;;;16.51;100.00;95337.03;5116510;28;1030;-58
2023/09/23 02:42:32;;;;;;;;;;;;;;;16.44;100.00;95328.03;5116428;28;1035;-57
2023/09/23 02:44:59;;;;;;;;;;;;;;;16.38;100.00;95335.03;5116298;28;996;-58
2023/09/23 02:47:25;;;;;;;;;;;;;;;16.46;100.00;95332.19;5116013;28;1106;-58
2023/09/23 02:49:51;;;;;;;;;;;;;;;16.41;100.00;95331.94;5115932;28;1897;-58
2023/09/23 02:52:17;;;;;;;;;;;;;;;16.37;100.00;95334.19;5115705;28;1087;-58
2023/09/23 02:54:43;;;;;;;;;;;;;;;16.38;100.00;95340.41;5116191;28;1083;-57
2023/09/23 02:57:12;;;;;;;;;;;;;;;16.39;100.00;95334.00;5116123;27;976;-57
2023/09/23 02:59:41;;;;;;;;;;;;;;;16.42;100.00;95338.19;5116096;28;1219;-57
2023/09/23 03:02:08;;;;;;;;;;;;;;;16.27;100.00;95349.84;5116161;28;1177;-58
2023/09/23 03:04:34;;;;;;;;;;;;;;;16.38;100.00;95348.50;5115773;28;1011;-58
2023/09/23 03:07:06;;;;;;;;;;;;;;;16.50;100.00;95341.56;5115661;28;976;-58
2023/09/23 03:09:32;;;;;;;;;;;;;;;16.56;100.00;95346.22;5114585;28;1906;-58
2023/09/23 03:12:00;;;;;;;;;;;;;;;16.63;100.00;95342.72;5115965;28;952;-58
2023/09/23 03:14:38;;;;;;;;;;;;;;;16.53;100.00;95341.19;5115489;28;1027;-58
2023/09/23 03:17:04;;;;;;;;;;;;;;;16.44;100.00;95339.63;5115872;28;1046;-57
2023/09/23 03:19:32;;;;;;;;;;;;;;;16.42;100.00;95339.00;5115313;28;1043;-57
2023/09/23 03:21:58;;;;;;;;;;;;;;;16.18;100.00;95341.06;5115397;28;1052;-57
2023/09/23 03:24:26;;;;;;;;;;;;;;;16.04;100.00;95339.22;5115377;28;980;-57
2023/09/23 03:26:53;;;;;;;;;;;;;;;16.08;100.00;95345.09;5115460;28;1047;-57
2023/09/23 03:29:19;;;;;;;;;;;;;;;16.24;100.00;95344.84;5115699;28;1984;-57
2023/09/23 03:31:46;;;;;;;;;;;;;;;16.24;100.00;95338.59;5115314;28;969;-57
2023/09/23 03:34:14;;;;;;;;;;;;;;;16.20;100.00;95346.25;5115029;28;1043;-57
2023/09/23 03:36:41;;;;;;;;;;;;;;;16.19;100.00;95344.59;5115343;28;972;-57
2023/09/23 03:39:10;;;;;;;;;;;;;;;16.10;100.00;95341.16;5115082;28;1040;-57
2023/09/23 03:41:39;;;;;;;;;;;;;;;15.99;100.00;95329.03;5115160;28;983;-57
2023/09/23 03:44:05;;;;;;;;;;;;;;;16.08;100.00;95335.13;5115013;28;994;-57
2023/09/23 03:46:31;;;;;;;;;;;;;;;16.16;100.00;95340.41;5114674;28;1101;-57
2023/09/23 03:48:57;;;;;;;;;;;;;;;16.18;100.00;95348.28;5114880;28;1111;-57
2023/09/23 03:51:24;;;;;;;;;;;;;;;16.15;100.00;95346.81;5114625;28;1971;-57
2023/09/23 03:53:51;;;;;;;;;;;;;;;16.12;100.00;95355.28;5115106;28;1016;-57
2023/09/23 03:56:19;;;;;;;;;;;;;;;16.13;100.00;95361.53;5115092;28;972;-57
2023/09/23 03:58:45;;;;;;;;;;;;;;;15.93;100.00;95350.50;5114905;28;1184;-57
2023/09/23 04:01:13;;;;;;;;;;;;;;;15.83;100.00;95358.91;5114530;28;1071;-57
2023/09/23 04:03:39;;;;;;;;;;;;;;;15.87;100.00;95354.78;5114588;28;1088;-58
2023/09/23 04:06:05;;;;;;;;;;;;;;;15.90;100.00;95361.69;5114890;27;1043;-57
2023/09/23 04:08:31;;;;;;;;;;;;;;;15.84;100.00;95362.41;5114430;28;1095;-57
2023/09/23 04:11:05;;;;;;;;;;;;;;;15.81;100.00;95372.56;5114351;28;2002;-57
2023/09/23 04:13:31;;;;;;;;;;;;;;;15.85;100.00;95367.63;5114358;28;1091;-57
2023/09/23 04:16:00;;;;;;;;;;;;;;;15.71;100.00;95373.88;5114285;28;1020;-58
2023/09/23 04:18:27;;;;;;;;;;;;;;;15.72;100.00;95373.66;5114478;28;1004;-58
2023/09/23 04:20:53;;;;;;;;;;;;;;;15.78;100.00;95377.50;5114467;28;1039;-57
2023/09/23 04:23:19;;;;;;;;;;;;;;;15.90;100.00;95388.66;5114322;28;1055;-57
2023/09/23 04:25:45;;;;;;;;;;;;;;;15.81;100.00;95387.91;5114335;28;972;-57
2023/09/23 04:28:11;;;;;;;;;;;;;;;15.93;100.00;95383.69;5114203;28;965;-57
2023/09/23 04:30:37;;;;;;;;;;;;;;;15.70;100.00;95389.19;5112799;28;1987;-57
2023/09/23 04:33:04;;;;;;;;;;;;;;;15.56;100.00;95401.66;5114039;28;1032;-57
2023/09/23 04:35:30;;;;;;;;;;;;;;;15.78;100.00;95401.75;5113912;28;960;-56
2023/09/23 04:37:56;;;;;;;;;;;;;;;16.02;100.00;95397.91;5113958;28;1061;-57
2023/09/23 04:40:22;;;;;;;;;;;;;;;16.03;100.00;95406.84;5114065;28;1046;-57
2023/09/23 04:42:48;;;;;;;;;;;;;;;15.90;100.00;95408.34;5114025;28;1048;-58
2023/09/23 04:45:14;;;;;;;;;;;;;;;15.79;100.00;95412.34;5114054;28;973;-58
2023/09/23 04:47:40;;;;;;;;;;;;;;;15.91;100.00;95415.41;5113863;28;1027;-58
2023/09/23 04:50:07;;;;;;;;;;;;;;;16.21;100.00;95415.38;5113783;28;1902;-57
2023/09/23 04:52:33;;;;;;;;;;;;;;;16.37;100.00;95415.16;5113705;28;1063;-58
2023/09/23 04:55:00;;;;;;;;;;;;;;;16.42;100.00;95427.22;5113855;28;1055;-58
2023/09/23 04:57:26;;;;;;;;;;;;;;;16.30;100.00;95424.19;5113690;28;1156;-58
2023/09/23 04:59:52;;;;;;;;;;;;;;;16.17;100.00;95428.38;5113630;28;1200;-57
2023/09/23 05:02:19;;;;;;;;;;;;;;;16.36;100.00;95423.44;5113698;28;1087;-57
2023/09/23 05:04:45;;;;;;;;;;;;;;;16.57;100.00;95431.53;5113705;28;1013;-57
2023/09/23 05:07:12;;;;;;;;;;;;;;;16.66;100.00;95426.88;5113795;28;1043;-58
2023/09/23 05:09:41;;;;;;;;;;;;;;;16.75;100.00;95432.97;5113935;28;2020;-57
2023/09/23 05:12:10;;;;;;;;;;;;;;;16.87;100.00;95426.06;5113958;28;953;-55
2023/09/23 05:14:37;;;;;;;;;;;;;;;16.93;100.00;95424.44;5113907;28;963;-56
2023/09/23 05:17:06;;;;;;;;;;;;;;;16.97;100.00;95429.25;5113614;28;1047;-55
2023/09/23 05:19:32;;;;;;;;;;;;;;;17.03;100.00;95429.53;5113462;28;1009;-56
2023/09/23 05:21:58;;;;;;;;;;;;;;;17.20;100.00;95440.88;5113536;28;1084;-56
2023/09/23 05:24:27;;;;;;;;;;;;;;;17.41;100.00;95442.72;5113468;28;1024;-56
2023/09/23 05:26:55;;;;;;;;;;;;;;;17.53;100.00;95446.56;5113748;28;1054;-56
2023/09/23 05:29:23;;;;;;;;;;;;;;;17.66;100.00;95441.25;5113554;28;1994;-56
2023/09/23 05:31:49;;;;;;;;;;;;;;;17.71;100.00;95451.44;5113678;28;1039;-56
2023/09/23 05:34:21;;;;;;;;;;;;;;;17.83;100.00;95443.59;5113455;28;1043;-55
2023/09/23 05:36:47;;;;;;;;;;;;;;;17.98;100.00;95455.16;5113485;28;1084;-55
2023/09/23 05:39:18;;;;;;;;;;;;;;;18.23;100.00;95451.97;5113373;28;976;-56
2023/09/23 05:41:45;;;;;;;;;;;;;;;18.43;99.31;95449.34;5113406;28;1039;-56
2023/09/23 05:44:12;;;;;;;;;;;;;;;18.65;97.70;95452.75;5113510;28;1015;-56
2023/09/23 05:46:39;;;;;;;;;;;;;;;18.82;97.50;95451.38;5113678;28;960;-56
2023/09/23 05:49:05;;;;;;;;;;;;;;;19.04;96.29;95452.00;5114758;28;2000;-56
2023/09/23 05:51:33;;;;;;;;;;;;;;;19.20;94.94;95453.50;5116907;28;1101;-55
2023/09/23 05:54:00;;;;;;;;;;;;;;;19.37;94.31;95472.91;5117447;28;1039;-56
2023/09/23 05:56:26;;;;;;;;;;;;;;;19.60;93.13;95477.91;5117034;28;1011;-56
2023/09/23 05:58:52;;;;;;;;;;;;;;;19.72;91.70;95474.56;5116958;28;1180;-56
2023/09/23 06:01:18;;;;;;;;;;;;;;;19.76;90.57;95473.13;5116899;28;1071;-55
2023/09/23 06:03:44;;;;;;;;;;;;;;;20.17;89.35;95477.44;5115771;28;1103;-56
2023/09/23 06:06:11;;;;;;;;;;;;;;;20.22;86.71;95470.31;5116856;28;948;-56
2023/09/23 06:08:40;;;;;;;;;;;;;;;20.39;86.06;95465.22;5116181;28;2281;-56
2023/09/23 06:11:10;;;;;;;;;;;;;;;20.38;85.35;95460.88;5095328;28;1909;-56
2023/09/23 06:13:36;;;;;;;;;;;;;;;20.34;85.39;95465.06;5096751;28;992;-56
2023/09/23 06:16:03;;;;;;;;;;;;;;;20.43;84.99;95466.50;5096500;28;996;-56
2023/09/23 06:18:29;;;;;;;;;;;;;;;20.79;82.74;95483.28;5096510;28;1023;-56
2023/09/23 06:20:58;;;;;;;;;;;;;;;21.02;80.96;95482.75;5096295;28;1111;-55
2023/09/23 06:23:24;;;;;;;;;;;;;;;20.95;83.07;95477.34;5096087;28;1113;-55
2023/09/23 06:25:58;;;;;;;;;;;;;;;21.29;81.59;95477.13;5096186;28;1040;-56
2023/09/23 06:28:24;;;;;;;;;;;;;;;21.13;83.05;95476.59;5096060;28;1124;-56
2023/09/23 06:30:50;;;;;;;;;;;;;;;21.16;82.22;95473.44;5096057;28;1902;-56
2023/09/23 06:33:16;;;;;;;;;;;;;;;21.23;81.83;95479.66;5096195;28;1051;-56
2023/09/23 06:35:42;;;;;;;;;;;;;;;21.50;81.01;95481.41;5096291;28;992;-56
2023/09/23 06:38:09;;;;;;;;;;;;;;;21.59;80.37;95485.53;5096220;28;964;-55
2023/09/23 06:40:34;;;;;;;;;;;;;;;21.76;80.31;95478.47;5094962;28;1031;-57
2023/09/23 06:43:00;;;;;;;;;;;;;;;21.99;78.02;95469.66;5095857;28;1032;-56
2023/09/23 06:45:26;;;;;;;;;;;;;;;22.10;79.54;95480.84;5095893;28;1000;-56
2023/09/23 06:47:52;;;;;;;;;;;;;;;22.16;78.88;95479.97;5096062;28;1081;-56
2023/09/23 06:50:19;;;;;;;;;;;;;;;22.49;76.71;95486.94;5095865;28;1902;-56
2023/09/23 06:52:45;;;;;;;;;;;;;;;22.87;75.40;95488.56;5095492;28;1077;-56
2023/09/23 06:55:11;;;;;;;;;;;;;;;22.47;77.05;95486.34;5095535;28;1036;-56
2023/09/23 06:57:37;;;;;;;;;;;;;;;22.49;78.30;95482.31;5096649;28;2485;-56
2023/09/23 07:00:07;;;;;;;;;;;;;;;22.70;77.05;95491.09;5115317;28;1146;-56
2023/09/23 07:02:36;;;;;;;;;;;;;;;22.75;77.85;95489.34;5115922;28;968;-56
2023/09/23 07:05:02;;;;;;;;;;;;;;;22.81;76.85;95485.69;5115834;28;1028;-56
2023/09/23 07:07:28;;;;;;;;;;;;;;;22.89;76.82;95479.09;5115687;28;1107;-56
2023/09/23 07:09:54;;;;;;;;;;;;;;;22.88;77.84;95485.63;5115913;28;1898;-56
2023/09/23 07:12:20;;;;;;;;;;;;;;;23.05;76.06;95491.31;5115794;27;1222;-56
2023/09/23 07:14:46;;;;;;;;;;;;;;;23.18;76.30;95484.81;5115901;28;973;-56
2023/09/23 07:17:12;;;;;;;;;;;;;;;23.43;75.80;95489.25;5115632;28;1020;-55
2023/09/23 07:19:38;;;;;;;;;;;;;;;23.39;75.51;95488.91;5115543;28;1040;-56
2023/09/23 07:22:04;;;;;;;;;;;;;;;23.40;76.16;95476.94;5115668;28;980;-55
2023/09/23 07:24:33;;;;;;;;;;;;;;;23.61;73.74;95485.63;5115325;28;1033;-55
2023/09/23 07:26:59;;;;;;;;;;;;;;;23.81;74.80;95490.78;5115415;28;1036;-55
2023/09/23 07:29:26;;;;;;;;;;;;;;;23.90;73.84;95484.75;5115296;28;1902;-56
2023/09/23 07:31:53;;;;;;;;;;;;;;;24.03;74.03;95486.41;5115431;27;973;-55
2023/09/23 07:34:19;;;;;;;;;;;;;;;24.22;71.86;95478.91;5115113;28;1032;-55
2023/09/23 07:36:45;;;;;;;;;;;;;;;24.41;71.18;95476.88;5115154;28;1016;-56
2023/09/23 07:39:12;;;;;;;;;;;;;;;24.40;71.31;95479.84;5115307;28;1050;-55
2023/09/23 07:41:38;;;;;;;;;;;;;;;24.48;71.06;95476.75;5114095;28;965;-56
2023/09/23 07:44:04;;;;;;;;;;;;;;;24.58;71.47;95478.91;5115081;28;1092;-56
2023/09/23 07:46:30;;;;;;;;;;;;;;;24.69;69.38;95470.66;5115138;28;961;-56
2023/09/23 07:48:56;;;;;;;;;;;;;;;24.70;70.94;95466.88;5115013;28;995;-55
2023/09/23 07:51:22;;;;;;;;;;;;;;;24.76;69.83;95467.81;5114818;28;1984;-55
2023/09/23 07:53:50;;;;;;;;;;;;;;;25.00;70.25;95468.53;5114870;28;1320;-55
2023/09/23 07:56:16;;;;;;;;;;;;;;;25.12;68.69;95461.13;5114836;28;1039;-56
2023/09/23 07:58:42;;;;;;;;;;;;;;;25.25;68.71;95465.50;5114801;28;1173;-56
2023/09/23 08:01:08;;;;;;;;;;;;;;;25.38;66.98;95463.50;5115047;28;928;-55
2023/09/23 08:03:34;;;;;;;;;;;;;;;25.57;65.39;95464.94;5114828;28;1066;-56
2023/09/23 08:06:00;;;;;;;;;;;;;;;25.60;63.81;95469.09;5112476;28;2543;-56
2023/09/23 08:08:26;;;;;;;;;;;;;;;25.77;63.38;95456.25;5114775;28;941;-56
2023/09/23 08:10:53;;;;;;;;;;;;;;;25.75;61.82;95455.66;5113674;28;1994;-56
2023/09/23 08:13:20;;;;;;;;;;;;;;;25.87;61.35;95456.38;5114605;28;969;-56
2023/09/23 08:15:46;;;;;;;;;;;;;;;26.00;62.07;95455.25;5114657;28;972;-56
2023/09/23 08:18:12;;;;;;;;;;;;;;;26.07;61.82;95453.19;5114333;27;1038;-56
2023/09/23 08:20:42;;;;;;;;;;;;;;;26.24;60.83;95460.53;5114694;28;1028;-56
2023/09/23 08:23:08;;;;;;;;;;;;;;;26.32;59.15;95456.53;5114340;28;1035;-56
2023/09/23 08:25:34;;;;;;;;;;;;;;;26.34;61.10;95452.47;5114495;28;1027;-56
2023/09/23 08:28:01;;;;;;;;;;;;;;;26.39;59.98;95446.19;5114531;28;1027;-56
2023/09/23 08:30:27;;;;;;;;;;;;;;;26.59;59.24;95452.00;5114060;28;1934;-56
2023/09/23 08:32:54;;;;;;;;;;;;;;;26.71;58.62;95448.28;5112911;28;1039;-57
2023/09/23 08:35:20;;;;;;;;;;;;;;;26.80;58.44;95449.50;5114106;28;1044;-57
2023/09/23 08:37:46;;;;;;;;;;;;;;;26.90;59.11;95444.16;5114349;28;964;-56
2023/09/23 08:40:15;;;;;;;;;;;;;;;26.94;58.49;95442.53;5114454;28;1031;-56
2023/09/23 08:42:41;;;;;;;;;;;;;;;27.06;56.81;95429.50;5114208;28;1007;-56
2023/09/23 08:45:11;;;;;;;;;;;;;;;27.08;59.00;95431.97;5114029;28;1033;-56
2023/09/23 08:47:37;;;;;;;;;;;;;;;27.16;58.53;95426.03;5113989;28;975;-56
2023/09/23 08:50:06;;;;;;;;;;;;;;;27.37;57.73;95421.59;5114198;28;1909;-56
2023/09/23 08:52:32;;;;;;;;;;;;;;;27.50;57.44;95427.75;5113752;28;1079;-56
2023/09/23 08:54:59;;;;;;;;;;;;;;;27.49;57.43;95418.69;5113426;28;992;-56
2023/09/23 08:57:25;;;;;;;;;;;;;;;27.65;57.11;95412.22;5112288;28;2546;-56
2023/09/23 08:59:51;;;;;;;;;;;;;;;27.79;56.76;95409.88;5112793;28;1240;-56
2023/09/23 09:02:22;;;;;;;;;;;;;;;27.82;56.23;95411.25;5113620;28;1048;-56
2023/09/23 09:04:51;;;;;;;;;;;;;;;27.82;56.67;95409.31;5114027;28;968;-56
2023/09/23 09:07:17;;;;;;;;;;;;;;;27.96;57.76;95406.97;5113868;28;984;-56
2023/09/23 09:09:43;;;;;;;;;;;;;;;27.89;55.15;95406.41;5113717;28;1906;-56
2023/09/23 09:12:09;;;;;;;;;;;;;;;28.00;56.00;95402.63;5114007;28;1011;-56
2023/09/23 09:14:35;;;;;;;;;;;;;;;28.13;56.18;95406.78;5113655;28;1078;-56
2023/09/23 09:17:01;;;;;;;;;;;;;;;28.19;55.76;95397.50;5113573;28;1024;-56
2023/09/23 09:19:27;;;;;;;;;;;;;;;28.26;56.69;95399.19;5113805;28;983;-56
2023/09/23 09:21:54;;;;;;;;;;;;;;;28.19;56.15;95397.50;5114369;28;992;-56
2023/09/23 09:24:23;;;;;;;;;;;;;;;28.14;54.91;95397.47;5117670;27;1091;-56
2023/09/23 09:26:49;;;;;;;;;;;;;;;28.13;56.23;95395.81;5118098;28;960;-56
2023/09/23 09:29:16;;;;;;;;;;;;;;;28.12;56.89;95391.41;5117532;28;1992;-57
2023/09/23 09:31:44;;;;;;;;;;;;;;;28.18;56.32;95392.28;5117611;28;1115;-56
2023/09/23 09:34:11;;;;;;;;;;;;;;;28.34;55.28;95380.28;5117783;28;1031;-55
2023/09/23 09:36:38;;;;;;;;;;;;;;;28.53;54.83;95380.66;5117897;28;952;-57
2023/09/23 09:39:07;;;;;;;;;;;;;;;28.44;53.40;95387.75;5117448;28;1068;-56
2023/09/23 09:41:37;;;;;;;;;;;;;;;28.68;53.23;95381.78;5117730;28;1063;-57
2023/09/23 09:44:04;;;;;;;;;;;;;;;28.75;54.17;95372.19;5117638;28;1050;-57
2023/09/23 09:46:30;;;;;;;;;;;;;;;28.77;51.23;95371.91;5117267;28;1091;-57
2023/09/23 09:48:59;;;;;;;;;;;;;;;28.70;51.47;95363.09;5117616;28;984;-57
2023/09/23 09:51:25;;;;;;;;;;;;;;;28.58;52.14;95368.84;5115717;28;1980;-57
2023/09/23 09:53:51;;;;;;;;;;;;;;;28.80;53.24;95355.69;5117252;28;1094;-57
2023/09/23 09:56:19;;;;;;;;;;;;;;;29.02;52.87;95357.38;5117192;28;1115;-56
2023/09/23 09:58:47;;;;;;;;;;;;;;;29.14;53.16;95357.16;5116953;28;1248;-57
2023/09/23 10:01:13;;;;;;;;;;;;;;;29.19;51.24;95363.50;5117289;28;972;-57
2023/09/23 10:03:45;;;;;;;;;;;;;;;29.26;50.12;95348.66;5117395;28;1028;-57
2023/09/23 10:06:22;;;;;;;;;;;;;;;29.35;53.69;95338.75;5117268;28;976;-57
2023/09/23 10:08:48;;;;;;;;;;;;;;;29.39;51.46;95345.34;5117349;28;1170;-57
2023/09/23 10:11:15;;;;;;;;;;;;;;;29.48;50.64;95346.44;5116700;28;1975;-57
2023/09/23 10:13:42;;;;;;;;;;;;;;;29.50;50.97;95335.13;5116858;28;1083;-57
2023/09/23 10:16:12;;;;;;;;;;;;;;;29.39;51.12;95331.56;5116863;28;1035;-57
2023/09/23 10:18:39;;;;;;;;;;;;;;;29.60;51.14;95329.63;5117131;28;953;-57
2023/09/23 10:21:06;;;;;;;;;;;;;;;29.68;50.88;95322.72;5117031;28;995;-57
2023/09/23 10:23:35;;;;;;;;;;;;;;;29.63;50.32;95320.78;5116556;28;1032;-57
2023/09/23 10:26:16;;;;;;;;;;;;;;;29.69;49.29;95314.19;5116589;28;960;-57
2023/09/23 10:28:43;;;;;;;;;;;;;;;29.74;50.31;95305.94;5116852;28;964;-56
2023/09/23 10:31:10;;;;;;;;;;;;;;;29.80;51.22;95292.16;5116695;28;1910;-57
2023/09/23 10:33:37;;;;;;;;;;;;;;;29.92;51.88;95290.75;5115601;28;1032;-56
2023/09/23 10:36:03;;;;;;;;;;;;;;;29.97;51.54;95290.72;5116757;28;983;-56
2023/09/23 10:38:37;;;;;;;;;;;;;;;29.98;51.03;95286.03;5116227;28;1035;-56
2023/09/23 10:41:04;;;;;;;;;;;;;;;30.15;49.80;95283.75;5116699;28;964;-56
2023/09/23 10:43:31;;;;;;;;;;;;;;;30.27;51.00;95274.34;5116187;28;1227;-56
2023/09/23 10:45:58;;;;;;;;;;;;;;;30.22;50.40;95274.34;5116514;28;988;-56
2023/09/23 10:48:25;;;;;;;;;;;;;;;30.17;51.59;95265.00;5116211;28;1040;-56
2023/09/23 10:50:51;;;;;;;;;;;;;;;30.15;50.67;95261.72;5116138;28;2007;-57
2023/09/23 10:53:21;;;;;;;;;;;;;;;30.17;51.77;95265.00;5116362;28;984;-56
2023/09/23 10:55:47;;;;;;;;;;;;;;;30.23;48.96;95257.53;5116041;28;1040;-56
2023/09/23 10:58:13;;;;;;;;;;;;;;;30.25;49.70;95252.56;5115794;28;1247;-56
2023/09/23 11:00:41;;;;;;;;;;;;;;;30.29;50.58;95250.06;5116255;28;1038;-56
2023/09/23 11:03:08;;;;;;;;;;;;;;;30.34;51.21;95239.03;5115939;28;1023;-56
2023/09/23 11:05:37;;;;;;;;;;;;;;;30.41;50.20;95236.81;5116024;28;983;-56
2023/09/23 11:08:06;;;;;;;;;;;;;;;30.46;47.43;95234.00;5116099;28;972;-55
2023/09/23 11:10:34;;;;;;;;;;;;;;;30.53;49.91;95231.75;5115883;28;1917;-55
2023/09/23 11:13:00;;;;;;;;;;;;;;;30.59;48.79;95227.03;5116024;28;1007;-55
2023/09/23 11:15:26;;;;;;;;;;;;;;;30.61;48.81;95219.28;5115679;28;1051;-56
2023/09/23 11:17:55;;;;;;;;;;;;;;;30.61;47.93;95219.28;5115604;28;1115;-55
2023/09/23 11:20:31;;;;;;;;;;;;;;;30.65;48.58;95203.78;5115665;28;987;-56
2023/09/23 11:23:03;;;;;;;;;;;;;;;30.63;47.87;95206.03;5115489;28;1024;-56
2023/09/23 11:25:30;;;;;;;;;;;;;;;30.65;47.25;95197.47;5115736;28;968;-55
2023/09/23 11:27:57;;;;;;;;;;;;;;;30.73;47.38;95199.59;5115577;28;1020;-55
2023/09/23 11:30:23;;;;;;;;;;;;;;;30.75;47.19;95191.84;5115200;28;2048;-56
2023/09/23 11:32:50;;;;;;;;;;;;;;;30.75;46.60;95187.19;5115263;28;1020;-56
2023/09/23 11:35:17;;;;;;;;;;;;;;;30.90;45.55;95186.22;5115163;28;1119;-56
2023/09/23 11:37:44;;;;;;;;;;;;;;;30.99;45.46;95183.69;5115521;28;956;-55
2023/09/23 11:40:12;;;;;;;;;;;;;;;31.01;46.46;95175.94;5115441;28;1023;-56
2023/09/23 11:42:38;;;;;;;;;;;;;;;30.97;46.04;95174.88;5115082;28;1118;-56
2023/09/23 11:45:04;;;;;;;;;;;;;;;31.00;45.05;95173.47;5099991;28;2548;-56
2023/09/23 11:47:31;;;;;;;;;;;;;;;31.04;44.84;95171.78;5094780;28;1040;-56
2023/09/23 11:49:56;;;;;;;;;;;;;;;31.02;43.85;95168.47;5094828;28;1987;-55
2023/09/23 11:52:23;;;;;;;;;;;;;;;31.04;43.96;95160.75;5094343;28;1362;-56
2023/09/23 11:54:49;;;;;;;;;;;;;;;31.04;44.46;95155.22;5094595;28;1036;-56
2023/09/23 11:57:15;;;;;;;;;;;;;;;31.11;43.84;95162.06;5094726;28;1031;-57
2023/09/23 11:59:42;;;;;;;;;;;;;;;31.13;43.83;95148.78;5111253;28;1189;-57
2023/09/23 12:02:08;;;;;;;;;;;;;;;31.21;41.48;95150.09;5114792;28;1003;-57
2023/09/23 12:04:34;;;;;;;;;;;;;;;31.29;42.11;95143.09;5114932;28;1031;-57
2023/09/23 12:07:00;;;;;;;;;;;;;;;31.32;41.61;95146.09;5112288;27;2545;-57
2023/09/23 12:09:28;;;;;;;;;;;;;;;31.27;40.34;95142.56;5114666;28;1918;-56
2023/09/23 12:11:54;;;;;;;;;;;;;;;31.29;39.08;95143.09;5114826;28;1040;-57
2023/09/23 12:14:20;;;;;;;;;;;;;;;31.40;39.08;95138.25;5114428;28;1095;-57
2023/09/23 12:16:46;;;;;;;;;;;;;;;31.43;38.58;95134.91;5114440;28;1036;-56
2023/09/23 12:19:12;;;;;;;;;;;;;;;31.48;36.80;95137.66;5114593;28;1128;-57
2023/09/23 12:21:38;;;;;;;;;;;;;;;31.49;35.83;95134.59;5114411;28;1114;-56
2023/09/23 12:24:04;;;;;;;;;;;;;;;31.57;32.71;95132.28;5114268;28;1091;-56
2023/09/23 12:26:31;;;;;;;;;;;;;;;31.63;33.63;95134.72;5095649;28;2522;-57
2023/09/23 12:28:57;;;;;;;;;;;;;;;31.81;33.92;95127.56;5106253;28;2592;-57
2023/09/23 12:31:24;;;;;;;;;;;;;;;31.91;33.18;95130.22;5112877;28;1905;-57
2023/09/23 12:33:50;;;;;;;;;;;;;;;32.07;32.97;95139.13;5114519;28;1038;-58
2023/09/23 12:36:17;;;;;;;;;;;;;;;32.13;31.90;95136.31;5114457;28;957;-57
2023/09/23 12:38:42;;;;;;;;;;;;;;;32.08;31.15;95143.56;5098293;28;2425;-57
2023/09/23 12:41:08;;;;;;;;;;;;;;;32.03;31.62;95131.75;5093743;28;1032;-58
2023/09/23 12:43:34;;;;;;;;;;;;;;;31.91;32.70;95130.22;5093855;28;976;-58
2023/09/23 12:46:00;;;;;;;;;;;;;;;31.83;33.47;95118.97;5093604;28;1064;-58
2023/09/23 12:48:27;;;;;;;;;;;;;;;31.69;34.42;95111.41;5093763;28;1012;-57
2023/09/23 12:50:53;;;;;;;;;;;;;;;31.71;34.12;95113.88;5093604;28;1909;-58
2023/09/23 12:53:20;;;;;;;;;;;;;;;31.74;34.50;95107.78;5093725;28;984;-57